sensor_id;sensor_type;location;lat;lon;timestamp;P1;durP1;ratioP1;P2;durP2;ratioP2
26512;SDS011;14186;53.822;10.152;2022-12-15T00:04:31;42.53;;;19.02;;
26512;SDS011;14186;53.822;10.152;2022-12-15T00:09:32;43.33;;;19.00;;
26512;SDS011;14186;53.822;10.152;2022-12-15T00:14:33;42.72;;;19.83;;
26512;SDS011;14186;53.822;10.152;2022-12-15T00:19:33;51.88;;;21.25;;
26512;SDS011;14186;53.822;10.152;2022-12-15T00:24:34;39.83;;;18.80;;
26512;SDS011;14186;53.822;10.152;2022-12-15T00:29:34;44.47;;;18.60;;
26512;SDS011;14186;53.822;10.152;2022-12-15T00:34:35;43.67;;;17.58;;
26512;SDS011;14186;53.822;10.152;2022-12-15T00:39:36;39.72;;;16.80;;
26512;SDS011;14186;53.822;10.152;2022-12-15T00:44:36;46.28;;;18.33;;
26512;SDS011;14186;53.822;10.152;2022-12-15T00:49:36;38.85;;;17.02;;
26512;SDS011;14186;53.822;10.152;2022-12-15T00:54:38;38.10;;;16.48;;
26512;SDS011;14186;53.822;10.152;2022-12-15T00:59:38;37.05;;;16.13;;
26512;SDS011;14186;53.822;10.152;2022-12-15T01:04:38;35.90;;;15.65;;
26512;SDS011;14186;53.822;10.152;2022-12-15T01:09:40;36.55;;;15.82;;
26512;SDS011;14186;53.822;10.152;2022-12-15T01:14:40;38.83;;;16.35;;
26512;SDS011;14186;53.822;10.152;2022-12-15T01:19:40;37.25;;;17.40;;
26512;SDS011;14186;53.822;10.152;2022-12-15T01:24:42;32.50;;;15.80;;
26512;SDS011;14186;53.822;10.152;2022-12-15T01:29:42;35.13;;;15.50;;
26512;SDS011;14186;53.822;10.152;2022-12-15T01:34:42;29.15;;;13.85;;
26512;SDS011;14186;53.822;10.152;2022-12-15T01:39:44;30.45;;;13.27;;
26512;SDS011;14186;53.822;10.152;2022-12-15T01:44:45;30.83;;;14.05;;
26512;SDS011;14186;53.822;10.152;2022-12-15T01:49:46;30.35;;;13.45;;
26512;SDS011;14186;53.822;10.152;2022-12-15T01:54:48;26.80;;;13.15;;
26512;SDS011;14186;53.822;10.152;2022-12-15T01:59:49;31.30;;;14.05;;
26512;SDS011;14186;53.822;10.152;2022-12-15T02:04:51;33.10;;;13.23;;
26512;SDS011;14186;53.822;10.152;2022-12-15T02:09:54;28.25;;;13.20;;
26512;SDS011;14186;53.822;10.152;2022-12-15T02:15:03;30.25;;;12.98;;
26512;SDS011;14186;53.822;10.152;2022-12-15T02:20:32;29.27;;;11.45;;
26512;SDS011;14186;53.822;10.152;2022-12-15T02:25:41;31.42;;;12.02;;
26512;SDS011;14186;53.822;10.152;2022-12-15T02:30:46;26.48;;;12.65;;
26512;SDS011;14186;53.822;10.152;2022-12-15T02:35:51;26.52;;;12.80;;
26512;SDS011;14186;53.822;10.152;2022-12-15T02:40:55;22.02;;;11.30;;
26512;SDS011;14186;53.822;10.152;2022-12-15T02:45:59;27.25;;;12.13;;
26512;SDS011;14186;53.822;10.152;2022-12-15T02:51:08;25.85;;;11.63;;
26512;SDS011;14186;53.822;10.152;2022-12-15T02:56:11;27.13;;;12.27;;
26512;SDS011;14186;53.822;10.152;2022-12-15T03:01:19;29.05;;;12.55;;
26512;SDS011;14186;53.822;10.152;2022-12-15T03:06:22;26.60;;;12.10;;
26512;SDS011;14186;53.822;10.152;2022-12-15T03:11:23;25.92;;;11.43;;
26512;SDS011;14186;53.822;10.152;2022-12-15T03:16:25;28.13;;;13.07;;
26512;SDS011;14186;53.822;10.152;2022-12-15T03:21:25;29.17;;;13.30;;
26512;SDS011;14186;53.822;10.152;2022-12-15T03:26:25;22.90;;;11.77;;
26512;SDS011;14186;53.822;10.152;2022-12-15T03:31:26;28.50;;;11.40;;
26512;SDS011;14186;53.822;10.152;2022-12-15T03:36:27;25.20;;;11.70;;
26512;SDS011;14186;53.822;10.152;2022-12-15T03:41:27;29.40;;;12.65;;
26512;SDS011;14186;53.822;10.152;2022-12-15T03:46:28;25.92;;;11.35;;
26512;SDS011;14186;53.822;10.152;2022-12-15T03:51:29;24.90;;;11.20;;
26512;SDS011;14186;53.822;10.152;2022-12-15T03:56:29;24.02;;;11.30;;
26512;SDS011;14186;53.822;10.152;2022-12-15T04:01:31;27.20;;;12.35;;
26512;SDS011;14186;53.822;10.152;2022-12-15T04:06:31;25.83;;;10.90;;
26512;SDS011;14186;53.822;10.152;2022-12-15T04:11:31;28.45;;;11.93;;
26512;SDS011;14186;53.822;10.152;2022-12-15T04:16:33;27.13;;;12.27;;
26512;SDS011;14186;53.822;10.152;2022-12-15T04:21:33;29.38;;;11.90;;
26512;SDS011;14186;53.822;10.152;2022-12-15T04:26:33;27.70;;;12.50;;
26512;SDS011;14186;53.822;10.152;2022-12-15T04:31:35;29.45;;;11.77;;
26512;SDS011;14186;53.822;10.152;2022-12-15T04:36:35;25.50;;;11.68;;
26512;SDS011;14186;53.822;10.152;2022-12-15T04:41:36;28.45;;;12.98;;
26512;SDS011;14186;53.822;10.152;2022-12-15T04:46:37;28.98;;;12.70;;
26512;SDS011;14186;53.822;10.152;2022-12-15T04:51:37;25.10;;;11.82;;
26512;SDS011;14186;53.822;10.152;2022-12-15T04:56:37;27.25;;;12.30;;
26512;SDS011;14186;53.822;10.152;2022-12-15T05:01:39;34.25;;;13.77;;
26512;SDS011;14186;53.822;10.152;2022-12-15T05:06:39;30.98;;;13.27;;
26512;SDS011;14186;53.822;10.152;2022-12-15T05:11:39;27.42;;;12.32;;
26512;SDS011;14186;53.822;10.152;2022-12-15T05:16:41;32.92;;;13.57;;
26512;SDS011;14186;53.822;10.152;2022-12-15T05:21:41;32.10;;;12.93;;
26512;SDS011;14186;53.822;10.152;2022-12-15T05:26:41;27.85;;;13.40;;
26512;SDS011;14186;53.822;10.152;2022-12-15T05:31:43;30.45;;;13.55;;
26512;SDS011;14186;53.822;10.152;2022-12-15T05:36:43;25.15;;;12.40;;
26512;SDS011;14186;53.822;10.152;2022-12-15T05:41:44;28.50;;;13.68;;
26512;SDS011;14186;53.822;10.152;2022-12-15T05:46:45;35.42;;;14.75;;
26512;SDS011;14186;53.822;10.152;2022-12-15T05:51:46;34.42;;;13.73;;
26512;SDS011;14186;53.822;10.152;2022-12-15T05:56:46;33.03;;;14.05;;
26512;SDS011;14186;53.822;10.152;2022-12-15T06:01:48;32.15;;;14.50;;
26512;SDS011;14186;53.822;10.152;2022-12-15T06:06:48;38.78;;;15.98;;
26512;SDS011;14186;53.822;10.152;2022-12-15T06:11:48;40.58;;;18.35;;
26512;SDS011;14186;53.822;10.152;2022-12-15T06:16:50;39.67;;;17.52;;
26512;SDS011;14186;53.822;10.152;2022-12-15T06:21:50;33.10;;;15.13;;
26512;SDS011;14186;53.822;10.152;2022-12-15T06:26:50;28.00;;;13.18;;
26512;SDS011;14186;53.822;10.152;2022-12-15T06:31:52;36.92;;;14.57;;
26512;SDS011;14186;53.822;10.152;2022-12-15T06:36:52;29.23;;;13.20;;
26512;SDS011;14186;53.822;10.152;2022-12-15T06:41:52;28.30;;;12.20;;
26512;SDS011;14186;53.822;10.152;2022-12-15T06:46:54;40.33;;;15.23;;
26512;SDS011;14186;53.822;10.152;2022-12-15T06:51:54;26.10;;;13.65;;
26512;SDS011;14186;53.822;10.152;2022-12-15T06:56:54;32.67;;;13.48;;
26512;SDS011;14186;53.822;10.152;2022-12-15T07:01:56;35.30;;;13.82;;
26512;SDS011;14186;53.822;10.152;2022-12-15T07:06:56;29.17;;;13.23;;
26512;SDS011;14186;53.822;10.152;2022-12-15T07:11:56;29.35;;;13.70;;
26512;SDS011;14186;53.822;10.152;2022-12-15T07:16:57;30.00;;;14.10;;
26512;SDS011;14186;53.822;10.152;2022-12-15T07:21:58;29.50;;;13.80;;
26512;SDS011;14186;53.822;10.152;2022-12-15T07:26:58;29.52;;;13.77;;
26512;SDS011;14186;53.822;10.152;2022-12-15T07:31:59;38.22;;;15.63;;
26512;SDS011;14186;53.822;10.152;2022-12-15T07:36:59;38.47;;;15.15;;
26512;SDS011;14186;53.822;10.152;2022-12-15T07:42:00;28.42;;;14.68;;
26512;SDS011;14186;53.822;10.152;2022-12-15T07:47:01;35.78;;;15.02;;
26512;SDS011;14186;53.822;10.152;2022-12-15T07:52:01;37.92;;;14.88;;
26512;SDS011;14186;53.822;10.152;2022-12-15T07:57:02;34.80;;;14.90;;
26512;SDS011;14186;53.822;10.152;2022-12-15T08:02:03;30.85;;;14.27;;
26512;SDS011;14186;53.822;10.152;2022-12-15T08:07:03;32.13;;;14.15;;
26512;SDS011;14186;53.822;10.152;2022-12-15T08:12:04;28.63;;;13.48;;
26512;SDS011;14186;53.822;10.152;2022-12-15T08:17:05;26.45;;;12.10;;
26512;SDS011;14186;53.822;10.152;2022-12-15T08:22:06;32.95;;;14.02;;
26512;SDS011;14186;53.822;10.152;2022-12-15T08:27:06;31.38;;;14.18;;
26512;SDS011;14186;53.822;10.152;2022-12-15T08:32:07;33.88;;;14.65;;
26512;SDS011;14186;53.822;10.152;2022-12-15T08:37:07;31.02;;;15.15;;
26512;SDS011;14186;53.822;10.152;2022-12-15T08:42:08;36.95;;;14.13;;
26512;SDS011;14186;53.822;10.152;2022-12-15T08:47:09;28.92;;;13.82;;
26512;SDS011;14186;53.822;10.152;2022-12-15T08:52:09;30.67;;;14.40;;
26512;SDS011;14186;53.822;10.152;2022-12-15T08:57:09;30.83;;;12.85;;
26512;SDS011;14186;53.822;10.152;2022-12-15T09:02:11;25.38;;;12.70;;
26512;SDS011;14186;53.822;10.152;2022-12-15T09:07:12;27.55;;;12.60;;
26512;SDS011;14186;53.822;10.152;2022-12-15T09:12:12;22.95;;;11.82;;
26512;SDS011;14186;53.822;10.152;2022-12-15T09:17:13;29.40;;;13.13;;
26512;SDS011;14186;53.822;10.152;2022-12-15T09:22:14;24.10;;;11.82;;
26512;SDS011;14186;53.822;10.152;2022-12-15T09:27:14;26.45;;;12.10;;
26512;SDS011;14186;53.822;10.152;2022-12-15T09:32:15;26.35;;;11.73;;
26512;SDS011;14186;53.822;10.152;2022-12-15T09:37:15;21.25;;;11.05;;
26512;SDS011;14186;53.822;10.152;2022-12-15T09:42:21;25.35;;;12.05;;
26512;SDS011;14186;53.822;10.152;2022-12-15T09:47:24;30.15;;;12.63;;
26512;SDS011;14186;53.822;10.152;2022-12-15T09:52:28;23.65;;;12.60;;
26512;SDS011;14186;53.822;10.152;2022-12-15T09:57:32;25.35;;;12.00;;
26512;SDS011;14186;53.822;10.152;2022-12-15T10:02:46;21.80;;;11.52;;
26512;SDS011;14186;53.822;10.152;2022-12-15T10:07:49;25.40;;;11.25;;
26512;SDS011;14186;53.822;10.152;2022-12-15T10:12:50;21.88;;;11.20;;
26512;SDS011;14186;53.822;10.152;2022-12-15T10:17:55;26.35;;;12.02;;
26512;SDS011;14186;53.822;10.152;2022-12-15T10:22:59;24.60;;;11.93;;
26512;SDS011;14186;53.822;10.152;2022-12-15T10:28:05;23.15;;;11.57;;
26512;SDS011;14186;53.822;10.152;2022-12-15T10:33:10;21.45;;;11.80;;
26512;SDS011;14186;53.822;10.152;2022-12-15T10:38:22;24.70;;;12.52;;
26512;SDS011;14186;53.822;10.152;2022-12-15T10:43:24;23.67;;;11.52;;
26512;SDS011;14186;53.822;10.152;2022-12-15T10:48:26;23.88;;;11.52;;
26512;SDS011;14186;53.822;10.152;2022-12-15T10:53:34;21.00;;;10.05;;
26512;SDS011;14186;53.822;10.152;2022-12-15T10:58:44;24.65;;;11.52;;
26512;SDS011;14186;53.822;10.152;2022-12-15T11:03:46;20.50;;;10.73;;
26512;SDS011;14186;53.822;10.152;2022-12-15T11:08:47;23.08;;;11.23;;
26512;SDS011;14186;53.822;10.152;2022-12-15T11:14:02;24.35;;;11.48;;
26512;SDS011;14186;53.822;10.152;2022-12-15T11:19:04;28.77;;;11.85;;
26512;SDS011;14186;53.822;10.152;2022-12-15T11:24:07;26.77;;;10.75;;
26512;SDS011;14186;53.822;10.152;2022-12-15T11:29:12;18.65;;;9.80;;
26512;SDS011;14186;53.822;10.152;2022-12-15T11:34:16;16.75;;;8.85;;
26512;SDS011;14186;53.822;10.152;2022-12-15T11:39:18;22.05;;;9.35;;
26512;SDS011;14186;53.822;10.152;2022-12-15T11:44:25;21.10;;;9.43;;
26512;SDS011;14186;53.822;10.152;2022-12-15T11:54:46;17.88;;;8.25;;
26512;SDS011;14186;53.822;10.152;2022-12-15T11:59:53;16.55;;;7.20;;
26512;SDS011;14186;53.822;10.152;2022-12-15T12:05:01;17.00;;;7.97;;
26512;SDS011;14186;53.822;10.152;2022-12-15T12:10:04;17.42;;;8.02;;
26512;SDS011;14186;53.822;10.152;2022-12-15T12:15:18;16.55;;;8.07;;
26512;SDS011;14186;53.822;10.152;2022-12-15T12:20:22;16.33;;;7.82;;
26512;SDS011;14186;53.822;10.152;2022-12-15T12:25:25;15.27;;;8.52;;
26512;SDS011;14186;53.822;10.152;2022-12-15T12:30:26;16.90;;;7.65;;
26512;SDS011;14186;53.822;10.152;2022-12-15T12:35:29;15.70;;;8.65;;
26512;SDS011;14186;53.822;10.152;2022-12-15T12:40:40;18.38;;;8.00;;
26512;SDS011;14186;53.822;10.152;2022-12-15T12:45:43;16.33;;;7.55;;
26512;SDS011;14186;53.822;10.152;2022-12-15T12:50:45;19.25;;;8.48;;
26512;SDS011;14186;53.822;10.152;2022-12-15T12:55:47;14.90;;;7.47;;
26512;SDS011;14186;53.822;10.152;2022-12-15T13:01:02;17.92;;;7.97;;
26512;SDS011;14186;53.822;10.152;2022-12-15T13:06:03;18.40;;;8.55;;
26512;SDS011;14186;53.822;10.152;2022-12-15T13:16:38;14.38;;;7.60;;
26512;SDS011;14186;53.822;10.152;2022-12-15T13:27:03;18.80;;;8.02;;
26512;SDS011;14186;53.822;10.152;2022-12-15T13:32:21;17.13;;;8.13;;
26512;SDS011;14186;53.822;10.152;2022-12-15T13:42:55;13.05;;;7.50;;
26512;SDS011;14186;53.822;10.152;2022-12-15T13:47:56;15.38;;;7.97;;
26512;SDS011;14186;53.822;10.152;2022-12-15T13:52:57;15.68;;;8.48;;
26512;SDS011;14186;53.822;10.152;2022-12-15T13:58:01;15.05;;;8.00;;
26512;SDS011;14186;53.822;10.152;2022-12-15T14:03:04;15.30;;;8.40;;
26512;SDS011;14186;53.822;10.152;2022-12-15T14:08:06;18.92;;;9.82;;
26512;SDS011;14186;53.822;10.152;2022-12-15T14:13:09;14.30;;;8.45;;
26512;SDS011;14186;53.822;10.152;2022-12-15T14:18:21;17.15;;;8.70;;
26512;SDS011;14186;53.822;10.152;2022-12-15T14:23:22;17.73;;;8.40;;
26512;SDS011;14186;53.822;10.152;2022-12-15T14:28:23;15.85;;;8.15;;
26512;SDS011;14186;53.822;10.152;2022-12-15T14:33:25;16.73;;;9.23;;
26512;SDS011;14186;53.822;10.152;2022-12-15T14:38:27;18.63;;;8.65;;
26512;SDS011;14186;53.822;10.152;2022-12-15T14:43:31;16.30;;;8.57;;
26512;SDS011;14186;53.822;10.152;2022-12-15T14:48:33;18.60;;;8.75;;
26512;SDS011;14186;53.822;10.152;2022-12-15T14:53:35;16.08;;;9.35;;
26512;SDS011;14186;53.822;10.152;2022-12-15T14:58:36;21.17;;;10.38;;
26512;SDS011;14186;53.822;10.152;2022-12-15T15:03:40;17.38;;;9.80;;
26512;SDS011;14186;53.822;10.152;2022-12-15T15:08:40;18.17;;;9.00;;
26512;SDS011;14186;53.822;10.152;2022-12-15T15:13:41;16.38;;;9.40;;
26512;SDS011;14186;53.822;10.152;2022-12-15T15:18:43;19.25;;;10.07;;
26512;SDS011;14186;53.822;10.152;2022-12-15T15:23:57;21.67;;;9.85;;
26512;SDS011;14186;53.822;10.152;2022-12-15T15:28:57;18.60;;;9.27;;
26512;SDS011;14186;53.822;10.152;2022-12-15T15:33:59;18.13;;;9.35;;
26512;SDS011;14186;53.822;10.152;2022-12-15T15:39:00;19.08;;;9.48;;
26512;SDS011;14186;53.822;10.152;2022-12-15T15:44:01;22.30;;;10.32;;
26512;SDS011;14186;53.822;10.152;2022-12-15T15:49:04;18.90;;;10.18;;
26512;SDS011;14186;53.822;10.152;2022-12-15T15:54:05;18.20;;;10.60;;
26512;SDS011;14186;53.822;10.152;2022-12-15T15:59:08;21.00;;;10.63;;
26512;SDS011;14186;53.822;10.152;2022-12-15T16:04:11;22.92;;;12.25;;
26512;SDS011;14186;53.822;10.152;2022-12-15T16:09:11;24.70;;;11.00;;
26512;SDS011;14186;53.822;10.152;2022-12-15T16:14:13;20.40;;;10.75;;
26512;SDS011;14186;53.822;10.152;2022-12-15T16:19:15;22.48;;;10.15;;
26512;SDS011;14186;53.822;10.152;2022-12-15T16:24:16;25.63;;;10.88;;
26512;SDS011;14186;53.822;10.152;2022-12-15T16:29:17;30.05;;;15.23;;
26512;SDS011;14186;53.822;10.152;2022-12-15T16:34:19;23.75;;;12.00;;
26512;SDS011;14186;53.822;10.152;2022-12-15T16:39:23;25.98;;;12.75;;
26512;SDS011;14186;53.822;10.152;2022-12-15T16:44:24;20.95;;;11.35;;
26512;SDS011;14186;53.822;10.152;2022-12-15T16:49:26;24.20;;;12.48;;
26512;SDS011;14186;53.822;10.152;2022-12-15T16:54:26;26.45;;;12.15;;
26512;SDS011;14186;53.822;10.152;2022-12-15T16:59:27;22.38;;;9.40;;
26512;SDS011;14186;53.822;10.152;2022-12-15T17:04:29;21.50;;;12.07;;
26512;SDS011;14186;53.822;10.152;2022-12-15T17:09:29;22.17;;;11.50;;
26512;SDS011;14186;53.822;10.152;2022-12-15T17:14:29;23.73;;;11.90;;
26512;SDS011;14186;53.822;10.152;2022-12-15T17:19:30;25.10;;;10.85;;
26512;SDS011;14186;53.822;10.152;2022-12-15T17:24:31;19.60;;;10.88;;
26512;SDS011;14186;53.822;10.152;2022-12-15T17:29:31;21.40;;;12.13;;
26512;SDS011;14186;53.822;10.152;2022-12-15T17:34:33;38.65;;;18.85;;
26512;SDS011;14186;53.822;10.152;2022-12-15T17:39:33;46.97;;;19.60;;
26512;SDS011;14186;53.822;10.152;2022-12-15T17:44:34;36.65;;;16.08;;
26512;SDS011;14186;53.822;10.152;2022-12-15T17:49:36;36.45;;;14.65;;
26512;SDS011;14186;53.822;10.152;2022-12-15T17:54:36;24.73;;;13.75;;
26512;SDS011;14186;53.822;10.152;2022-12-15T17:59:36;24.63;;;13.18;;
26512;SDS011;14186;53.822;10.152;2022-12-15T18:04:38;28.50;;;12.68;;
26512;SDS011;14186;53.822;10.152;2022-12-15T18:09:38;27.23;;;13.55;;
26512;SDS011;14186;53.822;10.152;2022-12-15T18:14:38;55.78;;;22.58;;
26512;SDS011;14186;53.822;10.152;2022-12-15T18:19:40;31.52;;;17.85;;
26512;SDS011;14186;53.822;10.152;2022-12-15T18:24:40;26.05;;;13.93;;
26512;SDS011;14186;53.822;10.152;2022-12-15T18:29:40;26.50;;;12.57;;
26512;SDS011;14186;53.822;10.152;2022-12-15T18:34:42;27.58;;;14.27;;
26512;SDS011;14186;53.822;10.152;2022-12-15T18:39:42;25.45;;;12.35;;
26512;SDS011;14186;53.822;10.152;2022-12-15T18:44:43;27.25;;;12.05;;
26512;SDS011;14186;53.822;10.152;2022-12-15T18:49:45;23.70;;;13.30;;
26512;SDS011;14186;53.822;10.152;2022-12-15T18:54:46;36.10;;;17.85;;
26512;SDS011;14186;53.822;10.152;2022-12-15T18:59:47;42.10;;;18.75;;
26512;SDS011;14186;53.822;10.152;2022-12-15T19:04:48;35.17;;;17.73;;
26512;SDS011;14186;53.822;10.152;2022-12-15T19:09:49;53.22;;;26.35;;
26512;SDS011;14186;53.822;10.152;2022-12-15T19:14:50;39.00;;;18.13;;
26512;SDS011;14186;53.822;10.152;2022-12-15T19:19:52;38.63;;;18.35;;
26512;SDS011;14186;53.822;10.152;2022-12-15T19:24:52;35.20;;;17.25;;
26512;SDS011;14186;53.822;10.152;2022-12-15T19:29:52;30.23;;;15.27;;
26512;SDS011;14186;53.822;10.152;2022-12-15T19:34:54;26.75;;;13.82;;
26512;SDS011;14186;53.822;10.152;2022-12-15T19:39:54;25.77;;;13.77;;
26512;SDS011;14186;53.822;10.152;2022-12-15T19:44:55;28.35;;;13.13;;
26512;SDS011;14186;53.822;10.152;2022-12-15T19:49:57;27.80;;;12.60;;
26512;SDS011;14186;53.822;10.152;2022-12-15T19:54:57;25.90;;;12.38;;
26512;SDS011;14186;53.822;10.152;2022-12-15T19:59:57;21.58;;;11.80;;
26512;SDS011;14186;53.822;10.152;2022-12-15T20:04:59;28.67;;;12.95;;
26512;SDS011;14186;53.822;10.152;2022-12-15T20:09:59;23.90;;;12.68;;
26512;SDS011;14186;53.822;10.152;2022-12-15T20:14:59;26.40;;;12.95;;
26512;SDS011;14186;53.822;10.152;2022-12-15T20:20:01;30.27;;;14.02;;
26512;SDS011;14186;53.822;10.152;2022-12-15T20:25:02;26.98;;;14.18;;
26512;SDS011;14186;53.822;10.152;2022-12-15T20:30:02;31.38;;;14.00;;
26512;SDS011;14186;53.822;10.152;2022-12-15T20:35:05;27.08;;;14.35;;
26512;SDS011;14186;53.822;10.152;2022-12-15T20:40:08;29.85;;;14.70;;
26512;SDS011;14186;53.822;10.152;2022-12-15T20:45:14;54.25;;;22.45;;
26512;SDS011;14186;53.822;10.152;2022-12-15T20:50:22;30.33;;;14.77;;
26512;SDS011;14186;53.822;10.152;2022-12-15T20:55:22;26.85;;;13.73;;
26512;SDS011;14186;53.822;10.152;2022-12-15T21:00:22;51.28;;;21.58;;
26512;SDS011;14186;53.822;10.152;2022-12-15T21:05:24;28.50;;;14.85;;
26512;SDS011;14186;53.822;10.152;2022-12-15T21:10:25;33.15;;;15.27;;
26512;SDS011;14186;53.822;10.152;2022-12-15T21:15:25;37.35;;;18.85;;
26512;SDS011;14186;53.822;10.152;2022-12-15T21:20:27;42.88;;;19.65;;
26512;SDS011;14186;53.822;10.152;2022-12-15T21:25:27;37.83;;;17.67;;
26512;SDS011;14186;53.822;10.152;2022-12-15T21:30:28;35.22;;;18.90;;
26512;SDS011;14186;53.822;10.152;2022-12-15T21:35:29;41.70;;;18.73;;
26512;SDS011;14186;53.822;10.152;2022-12-15T21:40:30;41.28;;;20.33;;
26512;SDS011;14186;53.822;10.152;2022-12-15T21:45:30;29.08;;;15.43;;
26512;SDS011;14186;53.822;10.152;2022-12-15T21:50:32;31.67;;;16.42;;
26512;SDS011;14186;53.822;10.152;2022-12-15T21:55:32;34.03;;;16.17;;
26512;SDS011;14186;53.822;10.152;2022-12-15T22:00:32;44.05;;;19.65;;
26512;SDS011;14186;53.822;10.152;2022-12-15T22:05:34;33.40;;;17.50;;
26512;SDS011;14186;53.822;10.152;2022-12-15T22:10:34;27.95;;;15.93;;
26512;SDS011;14186;53.822;10.152;2022-12-15T22:15:34;33.63;;;16.85;;
26512;SDS011;14186;53.822;10.152;2022-12-15T22:20:36;30.80;;;15.75;;
26512;SDS011;14186;53.822;10.152;2022-12-15T22:25:36;33.58;;;16.73;;
26512;SDS011;14186;53.822;10.152;2022-12-15T22:30:36;35.35;;;17.33;;
26512;SDS011;14186;53.822;10.152;2022-12-15T22:35:38;37.20;;;17.33;;
26512;SDS011;14186;53.822;10.152;2022-12-15T22:40:38;37.50;;;17.52;;
26512;SDS011;14186;53.822;10.152;2022-12-15T22:45:38;45.05;;;21.55;;
26512;SDS011;14186;53.822;10.152;2022-12-15T22:50:40;33.70;;;17.23;;
26512;SDS011;14186;53.822;10.152;2022-12-15T22:55:40;34.15;;;17.73;;
26512;SDS011;14186;53.822;10.152;2022-12-15T23:00:41;36.67;;;18.75;;
26512;SDS011;14186;53.822;10.152;2022-12-15T23:05:43;32.60;;;16.10;;
26512;SDS011;14186;53.822;10.152;2022-12-15T23:10:43;38.78;;;19.00;;
26512;SDS011;14186;53.822;10.152;2022-12-15T23:15:44;39.95;;;18.20;;
26512;SDS011;14186;53.822;10.152;2022-12-15T23:20:46;37.22;;;18.95;;
26512;SDS011;14186;53.822;10.152;2022-12-15T23:25:46;35.90;;;17.50;;
26512;SDS011;14186;53.822;10.152;2022-12-15T23:30:47;33.75;;;17.65;;
26512;SDS011;14186;53.822;10.152;2022-12-15T23:35:48;42.30;;;19.33;;
26512;SDS011;14186;53.822;10.152;2022-12-15T23:40:49;36.63;;;18.65;;
26512;SDS011;14186;53.822;10.152;2022-12-15T23:45:56;38.67;;;19.92;;
26512;SDS011;14186;53.822;10.152;2022-12-15T23:51:06;34.17;;;18.42;;
26512;SDS011;14186;53.822;10.152;2022-12-15T23:56:07;33.20;;;18.02;;
